Time,TemperatureF,DewpointF,PressureIn,WindDirection,WindDirectionDegrees,WindSpeedMPH,WindSpeedGustMPH,Humidity,HourlyPrecipIn,Conditions,Clouds,dailyrainin,SoftwareType,DateUTC
2013-01-06 00:01:00,19.6,15.2,29.96,WNW,293,2.0,8.6,83,0.00,,,0.00,WUHU216HW,2013-01-06 06:01:00,
2013-01-06 00:06:00,19.8,15.4,29.96,NW,315,3.0,6.8,83,0.00,,,0.00,WUHU216HW,2013-01-06 06:06:00,
2013-01-06 00:11:00,19.8,15.4,29.96,WNW,303,3.4,8.9,83,0.00,,,0.00,WUHU216HW,2013-01-06 06:11:00,
2013-01-06 00:16:00,19.8,15.4,29.96,West,270,1.2,8.9,83,0.00,,,0.00,WUHU216HW,2013-01-06 06:16:00,
2013-01-06 00:21:00,19.8,15.4,29.96,NW,315,1.2,6.4,83,0.00,,,0.00,WUHU216HW,2013-01-06 06:21:00,
2013-01-06 00:26:00,19.8,15.4,29.96,NW,315,0.8,8.1,83,0.00,,,0.00,WUHU216HW,2013-01-06 06:26:00,
2013-01-06 00:31:00,19.8,15.4,29.97,WNW,293,3.0,8.1,83,0.00,,,0.00,WUHU216HW,2013-01-06 06:31:00,
2013-01-06 00:36:00,19.8,15.4,29.97,NW,325,2.5,7.8,83,0.00,,,0.00,WUHU216HW,2013-01-06 06:36:00,
2013-01-06 00:41:00,19.8,15.4,29.97,NW,317,3.1,7.8,83,0.00,,,0.00,WUHU216HW,2013-01-06 06:41:00,
2013-01-06 00:46:00,20.0,15.6,29.98,NW,313,3.0,7.8,83,0.00,,,0.00,WUHU216HW,2013-01-06 06:46:00,
2013-01-06 00:51:00,20.0,15.6,29.98,NW,315,4.2,7.8,83,0.00,,,0.00,WUHU216HW,2013-01-06 06:51:00,
2013-01-06 00:56:00,19.8,15.4,29.98,NW,318,2.8,7.8,83,0.00,,,0.00,WUHU216HW,2013-01-06 06:56:00,
2013-01-06 01:01:00,19.8,15.4,29.98,NNW,338,1.4,6.4,83,0.00,,,0.00,WUHU216HW,2013-01-06 07:01:00,
2013-01-06 01:06:00,19.6,15.2,29.99,NW,318,2.5,6.4,83,0.00,,,0.00,WUHU216HW,2013-01-06 07:06:00,
2013-01-06 01:11:00,19.3,14.9,29.98,NW,305,2.5,6.4,83,0.00,,,0.00,WUHU216HW,2013-01-06 07:11:00,
2013-01-06 01:16:00,19.3,14.9,29.98,NW,320,2.3,7.5,83,0.00,,,0.00,WUHU216HW,2013-01-06 07:16:00,
2013-01-06 01:21:00,19.1,14.7,29.98,NW,315,4.4,7.8,83,0.00,,,0.00,WUHU216HW,2013-01-06 07:21:00,
2013-01-06 01:26:00,19.1,14.7,29.99,NW,305,1.7,10.0,83,0.00,,,0.00,WUHU216HW,2013-01-06 07:26:00,
2013-01-06 01:31:00,18.9,14.5,29.99,NNW,338,2.0,10.0,83,0.00,,,0.00,WUHU216HW,2013-01-06 07:31:00,
2013-01-06 01:36:00,18.7,14.3,29.99,WNW,293,1.4,6.0,83,0.00,,,0.00,WUHU216HW,2013-01-06 07:36:00,
2013-01-06 01:41:00,18.7,14.6,29.99,NNW,333,2.4,6.4,84,0.00,,,0.00,WUHU216HW,2013-01-06 07:41:00,
2013-01-06 01:46:00,18.5,14.4,29.99,NW,315,3.7,6.4,84,0.00,,,0.00,WUHU216HW,2013-01-06 07:46:00,
2013-01-06 01:51:00,18.5,14.4,29.99,NW,315,5.6,8.1,84,0.00,,,0.00,WUHU216HW,2013-01-06 07:51:00,
2013-01-06 01:56:00,18.4,14.2,29.99,NW,314,2.2,8.1,84,0.00,,,0.00,WUHU216HW,2013-01-06 07:56:00,
2013-01-06 02:01:00,18.4,14.2,29.99,NW,310,3.0,8.1,84,0.00,,,0.00,WUHU216HW,2013-01-06 08:01:00,
2013-01-06 02:06:00,18.2,14.0,29.99,NW,315,2.4,7.8,84,0.00,,,0.00,WUHU216HW,2013-01-06 08:06:00,
2013-01-06 02:11:00,18.2,14.0,30.00,NW,315,2.0,5.4,84,0.00,,,0.00,WUHU216HW,2013-01-06 08:11:00,
2013-01-06 02:16:00,18.0,13.9,30.00,WNW,293,3.7,5.4,84,0.00,,,0.00,WUHU216HW,2013-01-06 08:16:00,
2013-01-06 02:21:00,17.8,13.7,30.00,WNW,293,1.8,5.4,84,0.00,,,0.00,WUHU216HW,2013-01-06 08:21:00,
2013-01-06 02:26:00,17.6,13.5,30.00,NW,307,2.6,7.5,84,0.00,,,0.00,WUHU216HW,2013-01-06 08:26:00,
2013-01-06 02:31:00,17.5,13.3,30.01,WNW,293,2.8,7.5,84,0.00,,,0.00,WUHU216HW,2013-01-06 08:31:00,
2013-01-06 02:36:00,17.5,13.3,30.01,WNW,293,4.9,8.9,84,0.00,,,0.00,WUHU216HW,2013-01-06 08:36:00,
2013-01-06 02:41:00,17.3,13.1,30.01,NW,315,3.2,10.7,84,0.00,,,0.00,WUHU216HW,2013-01-06 08:41:00,
2013-01-06 02:46:00,17.1,13.0,30.01,NW,319,1.7,10.7,84,0.00,,,0.00,WUHU216HW,2013-01-06 08:46:00,
2013-01-06 02:51:00,16.9,12.8,30.02,West,270,5.9,10.0,84,0.00,,,0.00,WUHU216HW,2013-01-06 08:51:00,
2013-01-06 02:56:00,16.9,13.1,30.02,WNW,294,2.3,10.0,85,0.00,,,0.00,WUHU216HW,2013-01-06 08:56:00,
2013-01-06 03:01:00,16.9,13.1,30.02,NNW,328,1.1,8.6,85,0.00,,,0.00,WUHU216HW,2013-01-06 09:01:00,
2013-01-06 03:06:00,16.9,13.1,30.02,NW,318,1.4,8.1,85,0.00,,,0.00,WUHU216HW,2013-01-06 09:06:00,
2013-01-06 03:11:00,16.9,13.1,30.02,NW,309,1.8,6.4,85,0.00,,,0.00,WUHU216HW,2013-01-06 09:11:00,
2013-01-06 03:16:00,16.9,13.1,30.02,WNW,293,2.0,8.1,85,0.00,,,0.00,WUHU216HW,2013-01-06 09:16:00,
2013-01-06 03:21:00,16.9,13.1,30.02,WNW,300,0.9,8.1,85,0.00,,,0.00,WUHU216HW,2013-01-06 09:21:00,
2013-01-06 03:26:00,16.7,12.9,30.02,NW,308,2.2,4.9,85,0.00,,,0.00,WUHU216HW,2013-01-06 09:26:00,
2013-01-06 03:31:00,16.7,12.9,30.02,NNE,23,1.4,4.9,85,0.00,,,0.00,WUHU216HW,2013-01-06 09:31:00,
2013-01-06 03:36:00,16.9,13.1,30.02,NNW,337,1.4,4.0,85,0.00,,,0.00,WUHU216HW,2013-01-06 09:36:00,
2013-01-06 03:41:00,16.7,12.9,30.03,WNW,297,2.1,6.4,85,0.00,,,0.00,WUHU216HW,2013-01-06 09:41:00,
2013-01-06 03:46:00,16.7,12.9,30.03,NNW,338,1.0,6.4,85,0.00,,,0.00,WUHU216HW,2013-01-06 09:46:00,
2013-01-06 03:51:00,16.7,12.9,30.03,West,270,1.4,5.4,85,0.00,,,0.00,WUHU216HW,2013-01-06 09:51:00,
2013-01-06 03:56:00,16.7,13.1,30.03,NW,315,7.6,11.0,86,0.00,,,0.00,WUHU216HW,2013-01-06 09:56:00,
2013-01-06 04:01:00,16.9,13.3,30.04,WNW,300,1.1,11.0,86,0.00,,,0.00,WUHU216HW,2013-01-06 10:01:00,
2013-01-06 04:06:00,16.9,13.3,30.03,NW,315,2.2,11.0,86,0.00,,,0.00,WUHU216HW,2013-01-06 10:06:00,
2013-01-06 04:11:00,16.9,13.3,30.04,WNW,301,2.1,10.0,86,0.00,,,0.00,WUHU216HW,2013-01-06 10:11:00,
2013-01-06 04:16:00,16.9,13.3,30.03,NW,324,1.3,5.7,86,0.00,,,0.00,WUHU216HW,2013-01-06 10:16:00,
2013-01-06 04:21:00,16.9,13.3,30.04,WNW,293,1.8,4.9,86,0.00,,,0.00,WUHU216HW,2013-01-06 10:21:00,
2013-01-06 04:26:00,16.9,13.3,30.04,WNW,293,3.0,4.3,86,0.00,,,0.00,WUHU216HW,2013-01-06 10:26:00,
2013-01-06 04:31:00,17.1,13.5,30.04,NW,315,0.9,7.5,86,0.00,,,0.00,WUHU216HW,2013-01-06 10:31:00,
2013-01-06 04:36:00,17.1,13.5,30.05,NW,305,3.1,12.9,86,0.00,,,0.00,WUHU216HW,2013-01-06 10:36:00,
2013-01-06 04:41:00,17.1,13.5,30.05,NW,310,1.8,12.9,86,0.00,,,0.00,WUHU216HW,2013-01-06 10:41:00,
2013-01-06 04:46:00,16.9,13.3,30.05,NW,315,3.2,10.0,86,0.00,,,0.00,WUHU216HW,2013-01-06 10:46:00,
2013-01-06 04:51:00,16.9,13.3,30.04,WNW,295,2.2,10.0,86,0.00,,,0.00,WUHU216HW,2013-01-06 10:51:00,
2013-01-06 04:56:00,16.9,13.3,30.04,WNW,293,1.8,6.4,86,0.00,,,0.00,WUHU216HW,2013-01-06 10:56:00,
2013-01-06 05:01:00,16.9,13.3,30.04,WNW,293,1.4,5.4,86,0.00,,,0.00,WUHU216HW,2013-01-06 11:01:00,
2013-01-06 05:06:00,16.9,13.3,30.04,NW,325,1.7,5.4,86,0.00,,,0.00,WUHU216HW,2013-01-06 11:06:00,
2013-01-06 05:11:00,16.9,13.3,30.04,WNW,301,0.5,5.4,86,0.00,,,0.00,WUHU216HW,2013-01-06 11:11:00,
2013-01-06 05:16:00,16.7,13.1,30.04,NW,311,1.4,4.9,86,0.00,,,0.00,WUHU216HW,2013-01-06 11:16:00,
2013-01-06 05:21:00,16.6,13.0,30.04,WNW,293,0.4,4.9,86,0.00,,,0.00,WUHU216HW,2013-01-06 11:21:00,
2013-01-06 05:26:00,16.6,13.0,30.05,West,270,1.0,1.7,86,0.00,,,0.00,WUHU216HW,2013-01-06 11:26:00,
2013-01-06 05:31:00,16.4,12.9,30.05,NW,308,0.6,1.7,86,0.00,,,0.00,WUHU216HW,2013-01-06 11:31:00,
2013-01-06 05:36:00,16.2,12.7,30.05,NNW,338,0.4,2.9,86,0.00,,,0.00,WUHU216HW,2013-01-06 11:36:00,
2013-01-06 05:41:00,16.2,12.7,30.05,WNW,296,0.7,2.9,86,0.00,,,0.00,WUHU216HW,2013-01-06 11:41:00,
2013-01-06 05:46:00,16.0,12.5,30.06,NW,316,0.7,2.1,86,0.00,,,0.00,WUHU216HW,2013-01-06 11:46:00,
2013-01-06 05:51:00,15.8,12.3,30.06,NW,317,1.0,4.9,86,0.00,,,0.00,WUHU216HW,2013-01-06 11:51:00,
2013-01-06 05:56:00,15.8,12.1,30.07,NW,307,1.5,4.9,85,0.00,,,0.00,WUHU216HW,2013-01-06 11:56:00,
2013-01-06 06:01:00,15.7,12.2,30.07,NW,315,2.4,4.0,86,0.00,,,0.00,WUHU216HW,2013-01-06 12:01:00,
2013-01-06 06:06:00,15.5,12.0,30.07,NW,315,2.2,4.0,86,0.00,,,0.00,WUHU216HW,2013-01-06 12:06:00,
2013-01-06 06:11:00,15.5,12.0,30.08,WNW,301,1.7,5.4,86,0.00,,,0.00,WUHU216HW,2013-01-06 12:11:00,
2013-01-06 06:16:00,15.5,12.0,30.08,NNW,337,1.8,5.4,86,0.00,,,0.00,WUHU216HW,2013-01-06 12:16:00,
2013-01-06 06:21:00,15.3,11.8,30.08,NW,313,2.0,6.4,86,0.00,,,0.00,WUHU216HW,2013-01-06 12:21:00,
2013-01-06 06:26:00,15.1,11.6,30.09,NW,315,4.7,6.8,86,0.00,,,0.00,WUHU216HW,2013-01-06 12:26:00,
2013-01-06 06:31:00,15.1,11.3,30.09,NW,326,1.5,6.8,85,0.00,,,0.00,WUHU216HW,2013-01-06 12:31:00,
2013-01-06 06:36:00,14.9,11.2,30.09,West,270,2.0,6.8,85,0.00,,,0.00,WUHU216HW,2013-01-06 12:36:00,
2013-01-06 06:41:00,14.8,10.8,30.09,NW,312,1.5,6.8,84,0.00,,,0.00,WUHU216HW,2013-01-06 12:41:00,
2013-01-06 06:46:00,14.6,10.6,30.10,NW,323,1.5,6.8,84,0.00,,,0.00,WUHU216HW,2013-01-06 12:46:00,
2013-01-06 06:51:00,14.6,10.6,30.10,NW,319,1.0,4.0,84,0.00,,,0.00,WUHU216HW,2013-01-06 12:51:00,
2013-01-06 06:56:00,14.4,10.5,30.10,NW,315,1.2,4.0,84,0.00,,,0.00,WUHU216HW,2013-01-06 12:56:00,
2013-01-06 07:01:00,14.2,10.3,30.10,West,263,1.1,4.0,84,0.00,,,0.00,WUHU216HW,2013-01-06 13:01:00,
2013-01-06 07:07:00,14.0,10.1,30.09,WNW,293,0.2,4.0,84,0.00,,,0.00,WUHU216HW,2013-01-06 13:07:00,
2013-01-06 07:11:00,14.0,10.1,30.10,NW,315,1.2,2.1,84,0.00,,,0.00,WUHU216HW,2013-01-06 13:11:00,
2013-01-06 07:17:00,13.9,9.9,30.11,NW,315,0.2,1.7,84,0.00,,,0.00,WUHU216HW,2013-01-06 13:17:00,
2013-01-06 07:22:00,13.7,9.7,30.11,WNW,293,0.2,1.1,84,0.00,,,0.00,WUHU216HW,2013-01-06 13:22:00,
2013-01-06 07:27:00,13.5,9.5,30.12,NW,323,0.8,1.7,84,0.00,,,0.00,WUHU216HW,2013-01-06 13:27:00,
2013-01-06 07:32:00,13.3,9.1,30.11,NW,305,0.5,1.7,83,0.00,,,0.00,WUHU216HW,2013-01-06 13:32:00,
2013-01-06 07:37:00,13.3,9.1,30.12,West,270,0.4,1.4,83,0.00,,,0.00,WUHU216HW,2013-01-06 13:37:00,
2013-01-06 07:42:00,13.0,8.5,30.12,NW,304,0.9,2.5,82,0.00,,,0.00,WUHU216HW,2013-01-06 13:42:00,
2013-01-06 07:47:00,12.8,8.3,30.12,NW,310,0.4,2.5,82,0.00,,,0.00,WUHU216HW,2013-01-06 13:47:00,
2013-01-06 07:52:00,12.8,8.3,30.12,WNW,290,1.6,4.9,82,0.00,,,0.00,WUHU216HW,2013-01-06 13:52:00,
2013-01-06 07:57:00,12.6,8.1,30.13,NW,315,1.4,4.9,82,0.00,,,0.00,WUHU216HW,2013-01-06 13:57:00,
2013-01-06 08:02:00,12.6,7.8,30.13,NNW,343,0.3,5.4,81,0.00,,,0.00,WUHU216HW,2013-01-06 14:02:00,
2013-01-06 08:07:00,12.6,7.8,30.12,NNW,338,0.0,5.4,81,0.00,,,0.00,WUHU216HW,2013-01-06 14:07:00,
2013-01-06 08:12:00,12.6,7.8,30.13,WNW,295,0.9,2.1,81,0.00,,,0.00,WUHU216HW,2013-01-06 14:12:00,
2013-01-06 08:17:00,12.6,7.8,30.13,WNW,295,0.6,2.1,81,0.00,,,0.00,WUHU216HW,2013-01-06 14:17:00,
2013-01-06 08:22:00,12.6,8.1,30.13,WNW,297,0.6,1.7,82,0.00,,,0.00,WUHU216HW,2013-01-06 14:22:00,
2013-01-06 08:27:00,12.6,7.8,30.14,NW,319,1.7,4.0,81,0.00,,,0.00,WUHU216HW,2013-01-06 14:27:00,
2013-01-06 08:32:00,12.6,7.8,30.13,NW,304,0.5,6.0,81,0.00,,,0.00,WUHU216HW,2013-01-06 14:32:00,
2013-01-06 08:37:00,12.8,8.0,30.14,NNE,23,0.8,6.0,81,0.00,,,0.00,WUHU216HW,2013-01-06 14:37:00,
2013-01-06 08:42:00,12.8,8.0,30.14,NW,310,0.9,2.9,81,0.00,,,0.00,WUHU216HW,2013-01-06 14:42:00,
2013-01-06 08:47:00,13.0,7.9,30.14,WNW,284,0.9,3.5,80,0.00,,,0.00,WUHU216HW,2013-01-06 14:47:00,
2013-01-06 08:52:00,13.0,7.9,30.14,WSW,248,0.8,3.5,80,0.00,,,0.00,WUHU216HW,2013-01-06 14:52:00,
2013-01-06 08:57:00,13.1,7.8,30.14,NNW,334,0.6,2.9,79,0.00,,,0.00,WUHU216HW,2013-01-06 14:57:00,
2013-01-06 09:02:00,13.3,8.0,30.14,WNW,293,2.8,4.0,79,0.00,,,0.00,WUHU216HW,2013-01-06 15:02:00,
2013-01-06 09:07:00,13.3,8.0,30.14,NW,315,0.2,4.0,79,0.00,,,0.00,WUHU216HW,2013-01-06 15:07:00,
2013-01-06 09:12:00,13.5,8.2,30.14,NW,311,0.8,4.0,79,0.00,,,0.00,WUHU216HW,2013-01-06 15:12:00,
2013-01-06 09:17:00,13.9,8.3,30.14,NW,313,1.1,2.9,78,0.00,,,0.00,WUHU216HW,2013-01-06 15:17:00,
2013-01-06 09:22:00,14.0,8.5,30.15,WNW,293,3.7,5.4,78,0.00,,,0.00,WUHU216HW,2013-01-06 15:22:00,
2013-01-06 09:26:00,14.0,8.1,30.15,NNW,330,0.4,5.4,77,0.00,,,0.00,WUHU216HW,2013-01-06 15:26:00,
2013-01-06 09:31:00,14.2,8.3,30.15,North,350,0.5,5.4,77,0.00,,,0.00,WUHU216HW,2013-01-06 15:31:00,
2013-01-06 09:36:00,14.6,8.6,30.15,North,0,0.4,1.4,77,0.00,,,0.00,WUHU216HW,2013-01-06 15:36:00,
2013-01-06 09:41:00,14.8,8.8,30.15,NW,315,2.0,2.9,77,0.00,,,0.00,WUHU216HW,2013-01-06 15:41:00,
2013-01-06 09:46:00,14.8,8.6,30.15,WSW,248,1.8,4.9,76,0.00,,,0.00,WUHU216HW,2013-01-06 15:46:00,
2013-01-06 09:51:00,15.1,8.9,30.16,WNW,293,1.0,4.9,76,0.00,,,0.00,WUHU216HW,2013-01-06 15:51:00,
2013-01-06 09:56:00,15.3,9.1,30.16,NW,315,1.2,4.3,76,0.00,,,0.00,WUHU216HW,2013-01-06 15:56:00,
2013-01-06 10:01:00,15.5,8.9,30.16,NW,324,0.8,3.2,75,0.00,,,0.00,WUHU216HW,2013-01-06 16:01:00,
2013-01-06 10:06:00,15.5,8.9,30.16,NW,308,0.2,4.0,75,0.00,,,0.00,WUHU216HW,2013-01-06 16:06:00,
2013-01-06 10:11:00,15.8,9.0,30.16,WNW,293,3.4,4.9,74,0.00,,,0.00,WUHU216HW,2013-01-06 16:11:00,
2013-01-06 10:16:00,16.0,9.2,30.16,WNW,289,0.9,4.9,74,0.00,,,0.00,WUHU216HW,2013-01-06 16:16:00,
2013-01-06 10:21:00,16.2,9.3,30.16,NW,315,1.0,4.9,74,0.00,,,0.00,WUHU216HW,2013-01-06 16:21:00,
2013-01-06 10:26:00,16.6,9.4,30.16,WNW,293,1.4,4.0,73,0.00,,,0.00,WUHU216HW,2013-01-06 16:26:00,
2013-01-06 10:31:00,16.9,10.0,30.16,NW,312,0.9,3.2,74,0.00,,,0.00,WUHU216HW,2013-01-06 16:31:00,
2013-01-06 10:36:00,17.1,9.9,30.16,NW,319,1.3,2.9,73,0.00,,,0.00,WUHU216HW,2013-01-06 16:36:00,
2013-01-06 10:41:00,17.3,9.7,30.17,NW,315,1.2,2.9,72,0.00,,,0.00,WUHU216HW,2013-01-06 16:41:00,
2013-01-06 10:46:00,17.5,9.6,30.17,NW,304,1.4,3.5,71,0.00,,,0.00,WUHU216HW,2013-01-06 16:46:00,
2013-01-06 10:51:00,17.6,10.1,30.17,NW,315,2.8,5.4,72,0.00,,,0.00,WUHU216HW,2013-01-06 16:51:00,
2013-01-06 10:56:00,18.0,10.2,30.17,NNW,338,0.8,5.4,71,0.00,,,0.00,WUHU216HW,2013-01-06 16:56:00,
2013-01-06 11:01:00,18.2,10.4,30.17,WNW,293,3.0,4.6,71,0.00,,,0.00,WUHU216HW,2013-01-06 17:01:00,
2013-01-06 11:06:00,18.4,10.4,30.17,WNW,293,1.6,4.3,71,0.00,,,0.00,WUHU216HW,2013-01-06 17:06:00,
2013-01-06 11:11:00,18.7,11.1,30.17,West,270,1.8,4.3,72,0.00,,,0.00,WUHU216HW,2013-01-06 17:11:00,
2013-01-06 11:16:00,18.9,11.3,30.16,WNW,293,1.2,4.0,72,0.00,,,0.00,WUHU216HW,2013-01-06 17:16:00,
2013-01-06 11:21:00,19.3,11.6,30.16,NW,315,1.8,3.5,72,0.00,,,0.00,WUHU216HW,2013-01-06 17:21:00,
2013-01-06 11:26:00,19.6,12.0,30.16,WNW,293,1.2,2.5,72,0.00,,,0.00,WUHU216HW,2013-01-06 17:26:00,
2013-01-06 11:31:00,19.8,11.8,30.17,West,270,1.8,2.9,71,0.00,,,0.00,WUHU216HW,2013-01-06 17:31:00,
2013-01-06 11:36:00,20.3,12.3,30.16,West,270,1.2,2.9,71,0.00,,,0.00,WUHU216HW,2013-01-06 17:36:00,
2013-01-06 11:41:00,20.5,12.2,30.15,NW,325,1.3,2.9,70,0.00,,,0.00,WUHU216HW,2013-01-06 17:41:00,
2013-01-06 11:46:00,20.9,12.6,30.16,West,270,1.2,2.9,70,0.00,,,0.00,WUHU216HW,2013-01-06 17:46:00,
2013-01-06 11:51:00,21.1,12.4,30.15,SSW,203,1.2,2.5,69,0.00,,,0.00,WUHU216HW,2013-01-06 17:51:00,
2013-01-06 11:56:00,21.4,13.1,30.15,NW,315,1.2,2.5,70,0.00,,,0.00,WUHU216HW,2013-01-06 17:56:00,
2013-01-06 12:01:00,21.8,13.1,30.15,NW,315,1.2,2.5,69,0.00,,,0.00,WUHU216HW,2013-01-06 18:01:00,
2013-01-06 12:06:00,21.4,12.4,30.16,NW,321,0.5,4.9,68,0.00,,,0.00,WUHU216HW,2013-01-06 18:06:00,
2013-01-06 12:11:00,21.4,12.4,30.16,WSW,246,1.4,4.9,68,0.00,,,0.00,WUHU216HW,2013-01-06 18:11:00,
2013-01-06 12:16:00,22.0,13.0,30.16,WNW,293,1.4,3.5,68,0.00,,,0.00,WUHU216HW,2013-01-06 18:16:00,
2013-01-06 12:21:00,22.1,13.5,30.15,WNW,293,1.4,2.9,69,0.00,,,0.00,WUHU216HW,2013-01-06 18:21:00,
2013-01-06 12:26:00,22.3,13.3,30.16,WNW,291,1.3,3.2,68,0.00,,,0.00,WUHU216HW,2013-01-06 18:26:00,
2013-01-06 12:31:00,22.3,13.3,30.15,WNW,292,1.0,5.4,68,0.00,,,0.00,WUHU216HW,2013-01-06 18:31:00,
2013-01-06 12:36:00,22.3,13.3,30.15,West,270,0.8,5.4,68,0.00,,,0.00,WUHU216HW,2013-01-06 18:36:00,
2013-01-06 12:41:00,22.7,14.0,30.15,WSW,254,0.9,2.1,69,0.00,,,0.00,WUHU216HW,2013-01-06 18:41:00,
2013-01-06 12:46:00,23.0,14.0,30.15,SW,231,2.3,6.0,68,0.00,,,0.00,WUHU216HW,2013-01-06 18:46:00,
2013-01-06 12:51:00,23.2,14.2,30.15,WSW,240,1.4,6.0,68,0.00,,,0.00,WUHU216HW,2013-01-06 18:51:00,
2013-01-06 12:56:00,23.4,14.4,30.14,WSW,248,2.0,4.3,68,0.00,,,0.00,WUHU216HW,2013-01-06 18:56:00,
2013-01-06 13:01:00,23.6,14.6,30.14,West,270,1.8,2.9,68,0.00,,,0.00,WUHU216HW,2013-01-06 19:01:00,
2013-01-06 13:06:00,23.8,14.7,30.14,WSW,256,1.0,2.9,68,0.00,,,0.00,WUHU216HW,2013-01-06 19:06:00,
2013-01-06 13:11:00,23.9,14.9,30.14,West,262,1.4,2.9,68,0.00,,,0.00,WUHU216HW,2013-01-06 19:11:00,
2013-01-06 13:16:00,24.1,14.7,30.14,WSW,248,1.4,2.9,67,0.00,,,0.00,WUHU216HW,2013-01-06 19:16:00,
2013-01-06 13:21:00,24.1,15.0,30.14,NW,315,2.0,2.9,68,0.00,,,0.00,WUHU216HW,2013-01-06 19:21:00,
2013-01-06 13:26:00,24.3,14.9,30.14,West,270,1.2,2.9,67,0.00,,,0.00,WUHU216HW,2013-01-06 19:26:00,
2013-01-06 13:31:00,24.3,14.5,30.14,WSW,249,0.6,2.9,66,0.00,,,0.00,WUHU216HW,2013-01-06 19:31:00,
2013-01-06 13:36:00,24.5,14.7,30.14,WNW,290,0.5,2.9,66,0.00,,,0.00,WUHU216HW,2013-01-06 19:36:00,
2013-01-06 13:41:00,24.5,14.7,30.13,WNW,293,1.1,5.4,66,0.00,,,0.00,WUHU216HW,2013-01-06 19:41:00,
2013-01-06 13:46:00,24.5,14.3,30.14,WSW,248,1.0,5.4,65,0.00,,,0.00,WUHU216HW,2013-01-06 19:46:00,
2013-01-06 13:52:00,24.5,14.7,30.14,WSW,248,1.0,2.5,66,0.00,,,0.00,WUHU216HW,2013-01-06 19:52:00,
2013-01-06 13:57:00,24.7,14.9,30.14,West,263,0.7,2.1,66,0.00,,,0.00,WUHU216HW,2013-01-06 19:57:00,
2013-01-06 14:02:00,25.2,15.0,30.14,SW,236,1.3,2.5,65,0.00,,,0.00,WUHU216HW,2013-01-06 20:02:00,
2013-01-06 14:07:00,25.6,15.4,30.14,West,265,1.8,4.3,65,0.00,,,0.00,WUHU216HW,2013-01-06 20:07:00,
2013-01-06 14:11:00,25.9,15.3,30.14,WSW,251,1.3,4.3,64,0.00,,,0.00,WUHU216HW,2013-01-06 20:11:00,
2013-01-06 14:13:00,25.9,15.0,30.14,SW,225,1.2,4.3,63,0.00,,,0.00,WUHU216HW,2013-01-06 20:13:00,
2013-01-06 14:18:00,26.3,15.3,30.14,SW,233,1.0,2.9,63,0.00,,,0.00,WUHU216HW,2013-01-06 20:18:00,
2013-01-06 14:23:00,26.6,15.7,30.14,WSW,258,1.1,2.5,63,0.00,,,0.00,WUHU216HW,2013-01-06 20:23:00,
2013-01-06 14:28:00,27.0,16.0,30.14,WNW,293,1.0,2.5,63,0.00,,,0.00,WUHU216HW,2013-01-06 20:28:00,
2013-01-06 14:33:00,27.5,16.9,30.14,West,270,0.8,2.1,64,0.00,,,0.00,WUHU216HW,2013-01-06 20:33:00,
2013-01-06 14:38:00,27.9,16.6,30.15,SW,225,2.2,3.2,62,0.00,,,0.00,WUHU216HW,2013-01-06 20:38:00,
2013-01-06 14:43:00,28.4,17.1,30.15,SW,216,1.6,4.0,62,0.00,,,0.00,WUHU216HW,2013-01-06 20:43:00,
2013-01-06 14:48:00,28.6,17.3,30.15,WSW,252,0.8,4.0,62,0.00,,,0.00,WUHU216HW,2013-01-06 20:48:00,
2013-01-06 14:53:00,29.0,17.6,30.15,West,280,0.8,1.7,62,0.00,,,0.00,WUHU216HW,2013-01-06 20:53:00,
2013-01-06 14:58:00,29.2,17.4,30.14,WSW,239,1.6,2.9,61,0.00,,,0.00,WUHU216HW,2013-01-06 20:58:00,
2013-01-06 15:01:00,29.2,17.4,30.14,SW,225,0.8,2.9,61,0.00,,,0.00,WUHU216HW,2013-01-06 21:01:00,
2013-01-06 15:06:00,29.2,17.7,30.14,West,272,0.9,2.9,62,0.00,,,0.00,WUHU216HW,2013-01-06 21:06:00,
2013-01-06 15:11:00,29.2,17.7,30.15,West,270,0.8,1.7,62,0.00,,,0.00,WUHU216HW,2013-01-06 21:11:00,
2013-01-06 15:16:00,29.2,17.7,30.14,WNW,290,0.6,1.7,62,0.00,,,0.00,WUHU216HW,2013-01-06 21:16:00,
2013-01-06 15:21:00,29.2,17.4,30.15,SW,225,2.8,4.0,61,0.00,,,0.00,WUHU216HW,2013-01-06 21:21:00,
2013-01-06 15:26:00,29.0,17.2,30.15,West,270,1.8,4.0,61,0.00,,,0.00,WUHU216HW,2013-01-06 21:26:00,
2013-01-06 15:31:00,28.8,17.1,30.15,WSW,254,0.7,4.0,61,0.00,,,0.00,WUHU216HW,2013-01-06 21:31:00,
2013-01-06 15:36:00,28.4,16.4,30.15,WSW,248,1.2,2.5,60,0.01,,,0.01,WUHU216HW,2013-01-06 21:36:00,
2013-01-06 15:41:00,28.3,16.2,30.14,SW,225,1.2,2.9,60,0.01,,,0.01,WUHU216HW,2013-01-06 21:41:00,
2013-01-06 15:46:00,27.7,15.2,30.14,SW,230,1.6,8.6,59,0.01,,,0.01,WUHU216HW,2013-01-06 21:46:00,
2013-01-06 15:51:00,27.2,14.7,30.14,SW,225,3.7,8.6,59,0.01,,,0.01,WUHU216HW,2013-01-06 21:51:00,
2013-01-06 15:56:00,26.6,14.6,30.14,SSW,200,1.5,7.5,60,0.01,,,0.01,WUHU216HW,2013-01-06 21:56:00,
2013-01-06 16:01:00,26.3,14.6,30.14,SSW,206,1.5,5.4,61,0.01,,,0.01,WUHU216HW,2013-01-06 22:01:00,
2013-01-06 16:06:00,25.9,14.3,30.14,SSW,203,2.0,3.5,61,0.01,,,0.01,WUHU216HW,2013-01-06 22:06:00,
2013-01-06 16:11:00,25.6,13.6,30.14,SW,223,2.0,7.5,60,0.01,,,0.01,WUHU216HW,2013-01-06 22:11:00,
2013-01-06 16:16:00,25.4,13.8,30.14,SW,231,1.7,7.5,61,0.01,,,0.01,WUHU216HW,2013-01-06 22:16:00,
2013-01-06 16:21:00,25.0,13.5,30.14,SW,223,1.8,6.0,61,0.01,,,0.01,WUHU216HW,2013-01-06 22:21:00,
2013-01-06 16:26:00,24.7,13.2,30.14,SW,236,2.0,6.0,61,0.01,,,0.01,WUHU216HW,2013-01-06 22:26:00,
2013-01-06 16:31:00,24.5,13.3,30.14,SW,229,1.4,5.4,62,0.01,,,0.01,WUHU216HW,2013-01-06 22:31:00,
2013-01-06 16:36:00,24.1,13.0,30.14,SW,225,1.5,2.9,62,0.00,,,0.01,WUHU216HW,2013-01-06 22:36:00,
2013-01-06 16:41:00,23.9,13.2,30.14,SW,223,0.5,2.9,63,0.00,,,0.01,WUHU216HW,2013-01-06 22:41:00,
2013-01-06 16:46:00,23.8,13.0,30.14,SSW,212,0.6,2.9,63,0.00,,,0.01,WUHU216HW,2013-01-06 22:46:00,
2013-01-06 16:51:00,23.4,12.6,30.14,SW,221,0.9,2.9,63,0.00,,,0.01,WUHU216HW,2013-01-06 22:51:00,
2013-01-06 16:56:00,23.0,12.2,30.13,SW,225,1.2,2.9,63,0.00,,,0.01,WUHU216HW,2013-01-06 22:56:00,
2013-01-06 17:01:00,22.7,11.9,30.14,SSW,198,1.2,2.1,63,0.00,,,0.01,WUHU216HW,2013-01-06 23:01:00,
2013-01-06 17:06:00,22.3,11.9,30.14,SSW,203,1.0,2.1,64,0.00,,,0.01,WUHU216HW,2013-01-06 23:06:00,
2013-01-06 17:11:00,22.1,11.8,30.14,SSW,211,1.3,2.5,64,0.00,,,0.01,WUHU216HW,2013-01-06 23:11:00,
2013-01-06 17:16:00,22.0,11.6,30.13,SW,225,1.2,2.5,64,0.00,,,0.01,WUHU216HW,2013-01-06 23:16:00,
2013-01-06 17:21:00,21.6,11.6,30.13,SW,225,1.0,2.9,65,0.00,,,0.01,WUHU216HW,2013-01-06 23:21:00,
2013-01-06 17:26:00,21.4,11.4,30.13,SW,225,0.8,2.9,65,0.00,,,0.01,WUHU216HW,2013-01-06 23:26:00,
2013-01-06 17:31:00,21.2,11.3,30.14,SW,225,1.2,3.2,65,0.00,,,0.01,WUHU216HW,2013-01-06 23:31:00,
2013-01-06 17:36:00,21.1,11.1,30.13,SW,226,1.2,3.2,65,0.00,,,0.01,WUHU216HW,2013-01-06 23:36:00,
2013-01-06 17:41:00,20.9,10.9,30.13,SSW,203,0.0,2.5,65,0.00,,,0.01,WUHU216HW,2013-01-06 23:41:00,
2013-01-06 17:46:00,20.7,10.7,30.13,SSW,203,0.0,1.4,65,0.00,,,0.01,WUHU216HW,2013-01-06 23:46:00,
2013-01-06 17:51:00,20.5,10.5,30.13,SW,225,0.8,1.1,65,0.00,,,0.01,WUHU216HW,2013-01-06 23:51:00,
2013-01-06 17:56:00,20.3,10.7,30.13,WSW,248,0.8,1.4,66,0.00,,,0.01,WUHU216HW,2013-01-06 23:56:00,
2013-01-06 18:01:00,20.2,10.5,30.14,SW,225,1.0,2.1,66,0.00,,,0.01,WUHU216HW,2013-01-07 00:01:00,
2013-01-06 18:06:00,20.0,10.7,30.14,SW,225,1.0,2.5,67,0.00,,,0.01,WUHU216HW,2013-01-07 00:06:00,
2013-01-06 18:11:00,19.8,10.5,30.13,SW,219,0.7,3.2,67,0.00,,,0.01,WUHU216HW,2013-01-07 00:11:00,
2013-01-06 18:16:00,19.8,10.8,30.13,SW,217,1.3,3.2,68,0.00,,,0.01,WUHU216HW,2013-01-07 00:16:00,
2013-01-06 18:21:00,19.6,10.6,30.13,SSW,203,1.0,4.0,68,0.00,,,0.01,WUHU216HW,2013-01-07 00:21:00,
2013-01-06 18:26:00,19.4,10.8,30.13,SSW,208,0.8,4.0,69,0.00,,,0.01,WUHU216HW,2013-01-07 00:26:00,
2013-01-06 18:31:00,19.3,10.6,30.13,SW,225,1.2,2.1,69,0.00,,,0.01,WUHU216HW,2013-01-07 00:31:00,
2013-01-06 18:36:00,19.1,10.5,30.12,SSW,203,1.2,1.7,69,0.00,,,0.01,WUHU216HW,2013-01-07 00:36:00,
2013-01-06 18:41:00,19.1,10.5,30.13,SW,222,1.0,1.7,69,0.00,,,0.01,WUHU216HW,2013-01-07 00:41:00,
2013-01-06 18:46:00,18.9,10.7,30.13,WSW,248,1.4,3.2,70,0.00,,,0.01,WUHU216HW,2013-01-07 00:46:00,
2013-01-06 18:51:00,18.7,10.8,30.13,SW,225,1.2,4.6,71,0.00,,,0.01,WUHU216HW,2013-01-07 00:51:00,
2013-01-06 18:56:00,18.7,10.8,30.13,SW,225,1.2,4.6,71,0.00,,,0.01,WUHU216HW,2013-01-07 00:56:00,
2013-01-06 19:01:00,18.5,10.6,30.13,SSW,203,1.0,4.0,71,0.00,,,0.01,WUHU216HW,2013-01-07 01:01:00,
2013-01-06 19:06:00,18.4,10.4,30.12,SE,135,0.8,1.7,71,0.00,,,0.01,WUHU216HW,2013-01-07 01:06:00,
2013-01-06 19:11:00,18.4,10.4,30.12,South,180,0.8,1.7,71,0.00,,,0.01,WUHU216HW,2013-01-07 01:11:00,
2013-01-06 19:16:00,18.2,10.4,30.12,SW,225,0.8,1.7,71,0.00,,,0.01,WUHU216HW,2013-01-07 01:16:00,
2013-01-06 19:21:00,18.0,10.2,30.12,SSW,205,0.9,1.7,71,0.00,,,0.01,WUHU216HW,2013-01-07 01:21:00,
2013-01-06 19:26:00,17.8,10.0,30.13,SW,225,0.8,1.7,71,0.00,,,0.01,WUHU216HW,2013-01-07 01:26:00,
2013-01-06 19:31:00,17.6,9.8,30.13,WSW,248,1.4,2.1,71,0.00,,,0.01,WUHU216HW,2013-01-07 01:31:00,
2013-01-06 19:36:00,17.6,9.8,30.13,SW,220,0.5,2.1,71,0.00,,,0.01,WUHU216HW,2013-01-07 01:36:00,
2013-01-06 19:41:00,17.5,9.6,30.13,SW,225,0.4,2.1,71,0.00,,,0.01,WUHU216HW,2013-01-07 01:41:00,
2013-01-06 19:46:00,17.3,9.7,30.12,SSW,203,1.4,2.1,72,0.00,,,0.01,WUHU216HW,2013-01-07 01:46:00,
2013-01-06 19:51:00,17.3,9.7,30.12,SW,214,0.8,3.5,72,0.00,,,0.01,WUHU216HW,2013-01-07 01:51:00,
2013-01-06 19:56:00,17.1,9.6,30.12,SSW,208,1.0,3.5,72,0.00,,,0.01,WUHU216HW,2013-01-07 01:56:00,
2013-01-06 20:01:00,17.1,9.9,30.11,SW,218,1.4,2.9,73,0.00,,,0.01,WUHU216HW,2013-01-07 02:01:00,
2013-01-06 20:06:00,16.9,10.0,30.11,SW,218,0.9,2.9,74,0.00,,,0.01,WUHU216HW,2013-01-07 02:06:00,
2013-01-06 20:11:00,16.9,10.0,30.11,SSW,203,1.2,2.9,74,0.00,,,0.01,WUHU216HW,2013-01-07 02:11:00,
2013-01-06 20:16:00,16.7,9.8,30.11,South,180,2.8,4.0,74,0.00,,,0.01,WUHU216HW,2013-01-07 02:16:00,
2013-01-06 20:21:00,16.6,9.6,30.10,SSW,203,3.0,5.4,74,0.00,,,0.01,WUHU216HW,2013-01-07 02:21:00,
2013-01-06 20:26:00,16.6,9.6,30.09,SSW,203,3.2,6.0,74,0.00,,,0.01,WUHU216HW,2013-01-07 02:26:00,
2013-01-06 20:31:00,16.4,9.5,30.10,SSW,202,1.8,6.0,74,0.00,,,0.01,WUHU216HW,2013-01-07 02:31:00,
2013-01-06 20:36:00,16.2,9.3,30.09,South,187,1.9,4.6,74,0.00,,,0.01,WUHU216HW,2013-01-07 02:36:00,
2013-01-06 20:41:00,16.2,9.6,30.08,SSW,203,1.8,6.0,75,0.00,,,0.01,WUHU216HW,2013-01-07 02:41:00,
2013-01-06 20:46:00,16.2,9.6,30.08,SW,225,4.4,6.4,75,0.00,,,0.01,WUHU216HW,2013-01-07 02:46:00,
2013-01-06 20:51:00,16.2,9.9,30.07,South,181,2.0,6.4,76,0.00,,,0.01,WUHU216HW,2013-01-07 02:51:00,
2013-01-06 20:56:00,16.0,9.7,30.07,SSE,158,2.0,6.4,76,0.00,,,0.01,WUHU216HW,2013-01-07 02:56:00,
2013-01-06 21:01:00,16.0,9.7,30.07,South,180,3.7,7.2,76,0.00,,,0.01,WUHU216HW,2013-01-07 03:01:00,
2013-01-06 21:06:00,16.0,9.7,30.07,South,183,3.4,7.2,76,0.00,,,0.01,WUHU216HW,2013-01-07 03:06:00,
2013-01-06 21:11:00,15.8,9.9,30.06,SSE,165,3.2,7.8,77,0.00,,,0.01,WUHU216HW,2013-01-07 03:11:00,
2013-01-06 21:16:00,15.8,9.9,30.06,SSW,203,3.0,7.8,77,0.00,,,0.01,WUHU216HW,2013-01-07 03:16:00,
2013-01-06 21:21:00,15.8,9.9,30.06,SSW,208,1.8,5.7,77,0.00,,,0.01,WUHU216HW,2013-01-07 03:21:00,
2013-01-06 21:26:00,15.7,9.7,30.06,SSW,203,3.2,4.6,77,0.00,,,0.01,WUHU216HW,2013-01-07 03:26:00,
2013-01-06 21:31:00,15.7,10.0,30.05,South,185,3.0,6.4,78,0.00,,,0.01,WUHU216HW,2013-01-07 03:31:00,
2013-01-06 21:36:00,15.5,9.6,30.04,SSW,203,4.4,7.8,77,0.00,,,0.01,WUHU216HW,2013-01-07 03:36:00,
2013-01-06 21:41:00,15.5,9.6,30.05,South,187,1.5,7.8,77,0.00,,,0.01,WUHU216HW,2013-01-07 03:41:00,
2013-01-06 21:46:00,15.5,9.6,30.04,South,188,2.5,7.5,77,0.00,,,0.01,WUHU216HW,2013-01-07 03:46:00,
2013-01-06 21:51:00,15.5,9.6,30.05,SSE,152,2.1,5.7,77,0.00,,,0.01,WUHU216HW,2013-01-07 03:51:00,
2013-01-06 21:56:00,15.5,9.6,30.04,South,185,2.3,5.4,77,0.00,,,0.01,WUHU216HW,2013-01-07 03:56:00,
2013-01-06 22:01:00,15.5,9.6,30.04,SSW,192,2.6,7.5,77,0.00,,,0.01,WUHU216HW,2013-01-07 04:01:00,
2013-01-06 22:06:00,15.3,9.6,30.03,South,184,4.2,7.5,78,0.00,,,0.01,WUHU216HW,2013-01-07 04:06:00,
2013-01-06 22:11:00,15.1,9.5,30.03,SSW,203,3.4,7.5,78,0.00,,,0.01,WUHU216HW,2013-01-07 04:11:00,
2013-01-06 22:16:00,15.1,9.5,30.04,SSW,199,3.0,7.5,78,0.00,,,0.01,WUHU216HW,2013-01-07 04:16:00,
2013-01-06 22:21:00,15.1,9.5,30.03,SSW,203,4.9,8.6,78,0.00,,,0.01,WUHU216HW,2013-01-07 04:21:00,
2013-01-06 22:26:00,15.1,9.5,30.03,South,185,2.3,8.6,78,0.00,,,0.01,WUHU216HW,2013-01-07 04:26:00,
2013-01-06 22:31:00,15.1,9.8,30.02,South,180,4.0,8.1,79,0.00,,,0.01,WUHU216HW,2013-01-07 04:31:00,
2013-01-06 22:36:00,15.1,9.8,30.02,South,180,3.7,7.8,79,0.00,,,0.01,WUHU216HW,2013-01-07 04:36:00,
2013-01-06 22:41:00,15.1,9.8,30.02,SSW,196,3.3,7.8,79,0.00,,,0.01,WUHU216HW,2013-01-07 04:41:00,
2013-01-06 22:46:00,15.1,9.8,30.02,SSW,203,3.7,8.6,79,0.00,,,0.01,WUHU216HW,2013-01-07 04:46:00,
2013-01-06 22:51:00,15.1,9.8,30.01,South,173,2.7,8.6,79,0.00,,,0.01,WUHU216HW,2013-01-07 04:51:00,
2013-01-06 22:56:00,15.1,9.8,30.01,South,180,2.0,6.0,79,0.00,,,0.01,WUHU216HW,2013-01-07 04:56:00,
2013-01-06 23:00:00,14.9,9.6,30.01,South,184,3.1,7.2,79,0.00,,,0.01,WUHU216HW,2013-01-07 05:00:00,
2013-01-06 23:01:00,14.9,9.6,30.01,SE,135,2.8,7.2,79,0.00,,,0.01,WUHU216HW,2013-01-07 05:01:00,
2013-01-06 23:06:00,14.9,9.6,30.01,SSW,194,2.6,7.2,79,0.00,,,0.01,WUHU216HW,2013-01-07 05:06:00,
2013-01-06 23:11:00,14.9,9.6,30.01,SSW,203,1.8,6.8,79,0.00,,,0.01,WUHU216HW,2013-01-07 05:11:00,
2013-01-06 23:16:00,14.9,9.6,30.01,SSW,203,2.8,5.7,79,0.00,,,0.01,WUHU216HW,2013-01-07 05:16:00,
2013-01-06 23:21:00,14.9,9.6,30.01,SSE,158,1.4,5.7,79,0.00,,,0.01,WUHU216HW,2013-01-07 05:21:00,
2013-01-06 23:26:00,15.1,10.1,30.01,SSW,203,4.4,6.8,80,0.00,,,0.01,WUHU216HW,2013-01-07 05:26:00,
2013-01-06 23:31:00,15.1,10.1,30.01,SSE,158,3.7,6.8,80,0.00,,,0.01,WUHU216HW,2013-01-07 05:31:00,
2013-01-06 23:36:00,14.9,9.6,30.01,SSW,195,2.3,7.5,79,0.00,,,0.01,WUHU216HW,2013-01-07 05:36:00,
2013-01-06 23:41:00,14.9,9.9,30.00,SSW,203,3.7,7.5,80,0.00,,,0.01,WUHU216HW,2013-01-07 05:41:00,
2013-01-06 23:46:00,14.9,9.9,29.99,South,186,3.6,8.1,80,0.00,,,0.01,WUHU216HW,2013-01-07 05:46:00,
2013-01-06 23:51:00,15.1,10.1,29.99,SSW,199,3.8,10.0,80,0.00,,,0.01,WUHU216HW,2013-01-07 05:51:00,
2013-01-06 23:56:00,15.1,10.4,29.99,South,181,4.2,10.0,81,0.00,,,0.01,WUHU216HW,2013-01-07 05:56:00,